Time;durP1;ratioP1;P1;durP2;ratioP2;P2;SDS_P1;SDS_P2;PMS_P1;PMS_P2;Temp;Humidity;BMP_temperature;BMP_pressure;BME280_temperature;BME280_humidity;BME280_pressure;Samples;Min_cycle;Max_cycle;Signal;HPM_P1;HPM_P2
2023/07/07 00:04:29;;;;;;;3.38;1.70;;;;;;;17.33;45.06;98182.31;10515746;28;20068;-74
2023/07/07 00:09:49;;;;;;;4.75;1.70;;;;;;;17.25;45.43;98169.91;10515946;28;20131;-73
2023/07/07 00:15:10;;;;;;;4.32;1.40;;;;;;;17.11;45.89;98170.69;10529633;28;20067;-73
2023/07/07 00:20:31;;;;;;;2.50;1.30;;;;;;;17.02;46.13;98173.75;10528753;28;20074;-74
2023/07/07 00:26:04;;;;;;;5.72;1.58;;;;;;;16.87;46.43;98163.84;10515311;28;20067;-73
2023/07/07 00:31:25;;;;;;;4.05;1.58;;;;;;;16.77;46.70;98166.88;10544111;28;20063;-73
2023/07/07 00:36:46;;;;;;;7.40;1.80;;;;;;;16.72;47.10;98175.78;10514963;28;20455;-73
2023/07/07 00:42:08;;;;;;;5.00;1.80;;;;;;;16.59;47.28;98188.47;10528676;28;20068;-73
2023/07/07 00:47:29;;;;;;;3.05;1.40;;;;;;;16.52;47.52;98187.47;10514649;28;20071;-73
2023/07/07 00:52:49;;;;;;;3.80;1.45;;;;;;;16.43;48.03;98191.22;10514713;28;20165;-74
2023/07/07 00:58:12;;;;;;;3.92;1.65;;;;;;;16.38;48.14;98192.34;10517152;28;20473;-74
2023/07/07 01:03:38;;;;;;;4.05;1.80;;;;;;;16.36;48.41;98199.97;10514079;28;20455;-73
2023/07/07 01:09:01;;;;;;;5.80;1.50;;;;;;;16.31;48.43;98199.78;10528028;28;20060;-73
2023/07/07 01:14:24;;;;;;;2.35;1.25;;;;;;;16.18;48.67;98196.94;10527732;28;20584;-73
2023/07/07 01:20:14;;;;;;;3.85;1.75;;;;;;;16.16;49.68;98194.75;10513194;28;20063;-73
2023/07/07 01:25:58;;;;;;;6.05;1.77;;;;;;;16.15;49.89;98196.09;10515394;28;20040;-73
2023/07/07 01:31:32;;;;;;;4.10;1.85;;;;;;;16.21;49.80;98204.13;10526596;28;20063;-74
2023/07/07 01:36:53;;;;;;;4.22;1.55;;;;;;;16.20;49.85;98203.38;10526549;28;20081;-73
2023/07/07 01:42:18;;;;;;;3.17;1.30;;;;;;;16.21;49.92;98210.50;10526064;28;20068;-73
2023/07/07 01:47:39;;;;;;;3.80;1.75;;;;;;;16.17;50.02;98196.19;10512698;28;20118;-73
2023/07/07 01:53:03;;;;;;;3.38;1.50;;;;;;;16.03;50.32;98201.81;10541117;28;20162;-73
2023/07/07 01:58:24;;;;;;;3.10;1.50;;;;;;;15.93;50.26;98195.66;10501672;28;20036;-74
2023/07/07 02:03:45;;;;;;;4.63;1.83;;;;;;;15.73;50.61;98195.28;10514402;28;20071;-73
2023/07/07 02:09:06;;;;;;;5.78;1.50;;;;;;;15.64;51.23;98193.38;10525501;28;20036;-73
2023/07/07 02:14:26;;;;;;;3.35;1.42;;;;;;;15.63;51.42;98208.03;10511566;28;20063;-73
2023/07/07 02:19:47;;;;;;;2.20;1.40;;;;;;;15.64;51.66;98210.25;10510862;28;20116;-73
2023/07/07 02:25:08;;;;;;;5.82;1.80;;;;;;;15.59;52.04;98202.91;10525209;28;20067;-73
2023/07/07 02:30:29;;;;;;;5.32;2.05;;;;;;;15.57;52.17;98202.81;10496797;28;20435;-73
2023/07/07 02:35:50;;;;;;;4.13;1.70;;;;;;;15.52;52.21;98203.91;10510697;28;20440;-73
2023/07/07 02:41:11;;;;;;;4.15;1.88;;;;;;;15.45;52.51;98213.38;10526976;28;20063;-73
2023/07/07 02:46:31;;;;;;;3.63;1.55;;;;;;;15.39;52.65;98201.78;10505221;28;20128;-73
2023/07/07 02:51:52;;;;;;;4.07;1.50;;;;;;;15.36;52.91;98205.84;10519240;28;20044;-73
2023/07/07 02:57:13;;;;;;;4.45;1.80;;;;;;;15.34;53.01;98205.72;10518799;28;20094;-72
2023/07/07 03:02:33;;;;;;;3.90;1.80;;;;;;;15.25;53.21;98209.41;10518587;28;20055;-73
2023/07/07 03:07:54;;;;;;;5.25;1.73;;;;;;;15.22;53.45;98214.19;10504316;28;20043;-73
2023/07/07 03:13:17;;;;;;;4.50;1.50;;;;;;;15.23;53.63;98229.72;10518454;28;20048;-73
2023/07/07 03:18:40;;;;;;;4.30;2.00;;;;;;;15.28;53.59;98231.44;10518160;28;20552;-73
2023/07/07 03:24:02;;;;;;;5.43;2.10;;;;;;;15.38;53.98;98236.88;10504374;28;20068;-73
2023/07/07 03:29:23;;;;;;;4.22;1.58;;;;;;;15.42;53.71;98243.47;10517639;28;20123;-73
2023/07/07 03:34:47;;;;;;;4.03;1.92;;;;;;;15.51;53.81;98243.94;10503744;28;20119;-73
2023/07/07 03:40:09;;;;;;;3.03;1.90;;;;;;;15.52;54.12;98246.13;10531086;28;20162;-73
2023/07/07 03:45:30;;;;;;;5.22;1.60;;;;;;;15.56;54.29;98249.16;10530627;28;20128;-73
2023/07/07 03:50:59;;;;;;;4.53;1.67;;;;;;;15.66;54.14;98258.22;10517075;28;20071;-73
2023/07/07 03:56:21;;;;;;;4.60;1.70;;;;;;;15.74;54.10;98257.94;10515927;28;20055;-73
2023/07/07 04:01:42;;;;;;;4.97;1.73;;;;;;;15.89;54.33;98257.34;10516486;28;20478;-73
2023/07/07 04:07:03;;;;;;;2.63;1.45;;;;;;;16.03;53.95;98254.59;10488373;28;20071;-73
2023/07/07 04:12:23;;;;;;;5.32;1.92;;;;;;;16.19;54.06;98271.63;10529880;28;20477;-73
2023/07/07 04:17:45;;;;;;;4.35;1.67;;;;;;;16.35;54.02;98272.50;10529558;28;20533;-72
2023/07/07 04:23:05;;;;;;;5.15;2.10;;;;;;;16.53;53.95;98270.63;10529423;28;20064;-73
2023/07/07 04:28:26;;;;;;;4.97;1.95;;;;;;;16.66;53.55;98279.72;10515290;28;20516;-73
2023/07/07 04:33:47;;;;;;;5.10;2.17;;;;;;;16.90;53.66;98271.84;10515009;28;20120;-73
2023/07/07 04:39:07;;;;;;;3.40;1.90;;;;;;;17.12;53.41;98279.31;10515209;28;20512;-74
2023/07/07 04:44:28;;;;;;;4.20;1.88;;;;;;;17.43;52.75;98292.13;10516324;28;20060;-73
2023/07/07 04:49:49;;;;;;;4.20;1.85;;;;;;;17.71;52.55;98298.44;10543396;28;20044;-73
2023/07/07 04:55:09;;;;;;;4.40;2.30;;;;;;;17.83;51.64;98301.13;10528186;28;20546;-74
2023/07/07 05:00:30;;;;;;;5.25;2.03;;;;;;;18.09;51.48;98299.56;10499908;28;20112;-73
2023/07/07 05:05:50;;;;;;;5.13;2.20;;;;;;;18.36;50.69;98292.28;10513067;28;20048;-74
2023/07/07 05:11:16;;;;;;;4.80;1.92;;;;;;;18.78;50.17;98301.97;10499359;28;20512;-74
2023/07/07 05:16:37;;;;;;;4.78;2.33;;;;;;;19.12;49.58;98305.59;10513472;28;20094;-73
2023/07/07 05:21:58;;;;;;;6.28;2.28;;;;;;;19.40;48.64;98303.97;10513667;28;20067;-74
2023/07/07 05:27:19;;;;;;;3.63;2.17;;;;;;;19.78;47.99;98301.25;10526934;28;20052;-74
2023/07/07 05:32:40;;;;;;;4.93;2.20;;;;;;;20.12;47.08;98316.06;10526895;28;20047;-74
2023/07/07 05:38:00;;;;;;;4.82;2.05;;;;;;;20.58;46.09;98302.25;10512285;28;20060;-74
2023/07/07 05:43:22;;;;;;;7.07;2.50;;;;;;;21.02;45.41;98310.91;10512446;28;20478;-74
2023/07/07 05:48:42;;;;;;;5.47;2.33;;;;;;;21.54;44.63;98319.81;10512119;28;20064;-74
2023/07/07 05:54:03;;;;;;;5.82;2.28;;;;;;;21.88;43.87;98328.72;10525875;28;20040;-74
2023/07/07 05:59:24;;;;;;;5.78;2.58;;;;;;;22.28;42.86;98323.63;10540667;28;20068;-75
2023/07/07 06:04:44;;;;;;;4.70;2.35;;;;;;;22.34;42.03;98331.63;10540271;28;20044;-74
2023/07/07 06:10:05;;;;;;;7.10;3.17;;;;;;;22.77;41.28;98340.00;10511230;28;20043;-75
2023/07/07 06:15:26;;;;;;;7.63;2.60;;;;;;;23.30;40.48;98343.63;10524407;28;20397;-74
2023/07/07 06:20:54;;;;;;;5.75;2.78;;;;;;;23.88;39.84;98355.84;10511163;28;20109;-75
2023/07/07 06:26:16;;;;;;;4.82;2.67;;;;;;;24.06;39.21;98349.88;10511166;28;20044;-74
2023/07/07 06:31:37;;;;;;;9.57;3.38;;;;;;;24.30;37.36;98366.09;10510760;28;20044;-74
2023/07/07 06:36:59;;;;;;;4.90;2.80;;;;;;;24.76;37.00;98372.88;10510694;28;20051;-74
2023/07/07 06:42:20;;;;;;;6.40;2.97;;;;;;;25.10;36.01;98372.16;10510771;28;20067;-74
2023/07/07 06:47:49;;;;;;;5.60;2.97;;;;;;;25.64;35.18;98372.47;10498970;28;20343;-74
2023/07/07 06:53:10;;;;;;;9.15;3.05;;;;;;;26.06;34.14;98371.06;10539178;28;20425;-75
2023/07/07 06:58:33;;;;;;;6.30;2.47;;;;;;;26.75;33.93;98372.09;10496315;28;20036;-75
2023/07/07 07:03:53;;;;;;;5.53;2.97;;;;;;;27.26;32.33;98387.78;10510701;28;20052;-75
2023/07/07 07:09:14;;;;;;;4.88;2.50;;;;;;;27.32;31.92;98381.41;10509776;28;20063;-74
2023/07/07 07:14:35;;;;;;;5.45;2.80;;;;;;;27.22;31.17;98384.16;10495905;28;20040;-75
2023/07/07 07:19:56;;;;;;;4.88;2.25;;;;;;;27.54;30.51;98395.25;10509828;28;20506;-74
2023/07/07 07:25:16;;;;;;;5.65;2.80;;;;;;;27.45;29.79;98385.84;10539147;28;20109;-74
2023/07/07 07:30:38;;;;;;;5.95;2.80;;;;;;;28.17;29.25;98378.63;10517471;28;20036;-75
2023/07/07 07:35:59;;;;;;;8.90;2.53;;;;;;;28.67;28.59;98369.66;10503580;28;20090;-75
2023/07/07 07:41:19;;;;;;;8.23;2.45;;;;;;;29.03;27.86;98374.88;10530721;28;20040;-75
2023/07/07 07:46:41;;;;;;;4.30;2.40;;;;;;;28.90;27.32;98375.56;10530822;28;20040;-74
2023/07/07 07:52:02;;;;;;;8.25;3.10;;;;;;;28.88;27.03;98379.09;10517060;28;20044;-75
2023/07/07 07:57:22;;;;;;;5.20;2.50;;;;;;;29.29;26.64;98370.66;10530399;28;20480;-74
2023/07/07 08:02:43;;;;;;;7.22;2.58;;;;;;;29.08;26.35;98381.38;10530208;28;20048;-74
2023/07/07 08:08:05;;;;;;;4.88;2.30;;;;;;;29.79;26.15;98383.72;10529941;28;20044;-75
2023/07/07 08:13:26;;;;;;;5.90;2.30;;;;;;;30.68;25.22;98385.88;10530144;28;20111;-75
2023/07/07 08:18:59;;;;;;;4.43;2.30;;;;;;;30.79;24.00;98381.53;10531422;28;20040;-75
2023/07/07 08:24:21;;;;;;;4.50;2.35;;;;;;;30.43;24.49;98382.31;10529401;28;20044;-75
2023/07/07 08:29:42;;;;;;;7.50;2.40;;;;;;;30.99;24.37;98381.47;10501214;28;20452;-74
2023/07/07 08:35:03;;;;;;;9.48;3.30;;;;;;;30.68;23.87;98383.00;10529077;28;20540;-74
2023/07/07 08:40:24;;;;;;;4.18;2.60;;;;;;;30.19;24.80;98383.03;10514513;28;20363;-74
2023/07/07 08:45:51;;;;;;;4.40;2.40;;;;;;;30.57;24.19;98379.41;10514587;28;20394;-74
2023/07/07 08:51:17;;;;;;;7.43;3.08;;;;;;;30.91;23.49;98386.53;10528437;28;20040;-75
2023/07/07 08:56:48;;;;;;;6.28;2.50;;;;;;;30.91;23.25;98375.03;10514367;28;20086;-74
2023/07/07 09:02:37;;;;;;;6.00;2.60;;;;;;;31.12;23.62;98378.53;10527537;28;20067;-74
2023/07/07 09:08:13;;;;;;;4.20;2.35;;;;;;;31.42;23.11;98384.16;10527670;28;20525;-73
2023/07/07 09:13:35;;;;;;;4.32;2.28;;;;;;;32.43;22.46;98379.13;10527509;28;20040;-75
2023/07/07 09:19:03;;;;;;;3.55;2.60;;;;;;;33.11;20.52;98379.84;10513295;28;20473;-74
2023/07/07 09:24:28;;;;;;;3.40;2.25;;;;;;;32.43;21.01;98374.06;10527173;28;20044;-74
2023/07/07 09:29:51;;;;;;;4.22;2.13;;;;;;;32.28;20.80;98386.47;10526931;28;20478;-74
2023/07/07 09:35:13;;;;;;;6.50;2.30;;;;;;;32.45;20.88;98376.94;10512952;28;20044;-74
2023/07/07 09:40:45;;;;;;;3.95;2.40;;;;;;;32.85;20.63;98383.03;10512760;28;20036;-74
2023/07/07 09:46:15;;;;;;;4.72;2.00;;;;;;;33.27;20.13;98376.72;10525914;28;20044;-73
2023/07/07 09:51:58;;;;;;;5.03;1.98;;;;;;;32.97;19.18;98371.34;10525977;28;20044;-73
2023/07/07 09:57:31;;;;;;;5.70;2.22;;;;;;;32.64;17.99;98368.78;10525782;28;20044;-73
2023/07/07 10:02:52;;;;;;;4.00;1.55;;;;;;;32.65;17.45;98376.00;10511451;28;20056;-73
2023/07/07 10:08:13;;;;;;;7.13;2.20;;;;;;;31.53;17.98;98374.00;10511604;28;20070;-73
2023/07/07 10:13:33;;;;;;;3.42;1.55;;;;;;;31.80;17.84;98374.56;10540517;28;20036;-73
2023/07/07 10:18:57;;;;;;;2.80;1.75;;;;;;;31.65;18.15;98369.59;10525175;28;20044;-73
2023/07/07 10:24:18;;;;;;;4.57;2.53;;;;;;;32.44;18.26;98374.78;10497338;28;20119;-73
2023/07/07 10:29:40;;;;;;;3.00;1.63;;;;;;;33.48;17.21;98367.78;10524809;28;20390;-73
2023/07/07 10:35:02;;;;;;;4.47;1.92;;;;;;;33.57;17.10;98374.88;10525135;28;20497;-73
2023/07/07 10:40:25;;;;;;;;;;;;;;;33.16;16.95;98374.72;10511071;28;20051;-74
2023/07/07 10:45:48;;;;;;;5.57;2.00;;;;;;;33.26;17.18;98374.56;10510859;28;19927;-74
2023/07/07 10:51:49;;;;;;;4.20;1.70;;;;;;;33.28;16.81;98368.75;10524741;28;20046;-74
2023/07/07 10:57:39;;;;;;;4.90;1.85;;;;;;;33.49;17.03;98366.31;10523860;28;20055;-74
2023/07/07 11:03:19;;;;;;;3.90;2.08;;;;;;;33.21;16.54;98364.53;10527486;28;20048;-74
2023/07/07 11:09:01;;;;;;;2.03;1.38;;;;;;;33.03;16.76;98368.38;10547564;28;20119;-73
2023/07/07 11:14:37;;;;;;;4.60;1.83;;;;;;;32.88;17.08;98370.00;10518313;28;20060;-74
2023/07/07 11:20:17;;;;;;;3.97;1.73;;;;;;;33.17;16.84;98353.72;10546798;28;20233;-74
2023/07/07 11:26:03;;;;;;;2.85;1.80;;;;;;;33.48;16.54;98348.25;10546901;28;20378;-73
2023/07/07 11:31:38;;;;;;;4.43;1.92;;;;;;;32.75;16.80;98364.34;10546726;28;20481;-74
2023/07/07 11:37:27;;;;;;;3.78;1.90;;;;;;;32.12;16.68;98353.38;10532655;28;20134;-73
2023/07/07 11:43:04;;;;;;;3.17;2.10;;;;;;;31.51;17.37;98350.22;10530766;28;20044;-73
2023/07/07 11:48:41;;;;;;;3.65;1.60;;;;;;;31.46;17.03;98348.81;10530567;28;20048;-74
2023/07/07 11:54:55;;;;;;;2.97;1.80;;;;;;;31.01;17.61;98341.09;10545668;28;20040;-74
2023/07/07 12:00:47;;;;;;;6.35;1.90;;;;;;;32.00;17.21;98336.16;10361828;28;20046;-73
2023/07/07 12:06:17;;;;;;;;;;;;;;;32.33;17.09;98325.06;10503567;28;20539;-74
2023/07/07 12:11:42;;;;;;;2.30;1.50;;;;;;;32.63;17.21;98321.13;10473743;28;20086;-74
2023/07/07 12:17:04;;;;;;;4.00;2.10;;;;;;;33.52;16.48;98315.66;10472749;28;20036;-73
2023/07/07 12:22:29;;;;;;;4.75;1.92;;;;;;;33.01;16.11;98319.25;10459794;28;20044;-73
2023/07/07 12:27:51;;;;;;;3.83;1.90;;;;;;;32.18;16.42;98315.78;10459479;28;20041;-73
2023/07/07 12:33:16;;;;;;;3.28;1.60;;;;;;;32.03;17.02;98314.47;10459912;28;20090;-74
2023/07/07 12:38:38;;;;;;;3.05;1.90;;;;;;;31.82;17.19;98316.13;10472961;28;20074;-73
2023/07/07 12:44:02;;;;;;;1.90;1.67;;;;;;;31.49;17.26;98301.22;10472962;28;20551;-73
2023/07/07 12:49:23;;;;;;;4.22;2.08;;;;;;;31.05;17.36;98306.47;10472703;28;20044;-73
2023/07/07 12:54:51;;;;;;;4.38;1.73;;;;;;;30.99;17.17;98303.66;10472271;28;20036;-73
2023/07/07 13:00:26;;;;;;;4.00;1.95;;;;;;;31.56;17.44;98300.44;10485873;28;20044;-73
2023/07/07 13:05:49;;;;;;;4.35;1.85;;;;;;;31.31;17.04;98299.88;10526033;28;20540;-73
2023/07/07 13:11:26;;;;;;;2.45;1.73;;;;;;;30.92;17.38;98290.00;10527200;28;20036;-73
2023/07/07 13:16:47;;;;;;;3.60;1.92;;;;;;;30.84;17.81;98290.03;10499924;28;20484;-73
2023/07/07 13:22:14;;;;;;;4.20;1.80;;;;;;;31.15;17.35;98284.81;10498934;28;20048;-73
2023/07/07 13:27:39;;;;;;;3.17;1.77;;;;;;;30.61;17.54;98275.69;10500186;28;20375;-73
2023/07/07 13:33:06;;;;;;;3.83;1.50;;;;;;;30.47;17.69;98279.34;10498357;28;20036;-73
2023/07/07 13:38:31;;;;;;;2.95;1.58;;;;;;;30.41;17.87;98279.38;10512369;28;20286;-74
2023/07/07 13:43:52;;;;;;;5.15;1.70;;;;;;;30.68;17.95;98274.25;10512386;28;20140;-73
2023/07/07 13:49:15;;;;;;;3.92;1.80;;;;;;;30.37;17.47;98270.72;10511593;28;20068;-73
2023/07/07 13:54:36;;;;;;;2.83;1.60;;;;;;;29.98;18.21;98269.34;10525777;28;20039;-73
2023/07/07 13:59:58;;;;;;;3.43;1.87;;;;;;;29.89;18.13;98271.53;10525159;28;20119;-74
2023/07/07 14:05:19;;;;;;;2.30;1.52;;;;;;;30.19;17.70;98267.91;10497033;28;20048;-73
2023/07/07 14:10:43;;;;;;;2.83;1.77;;;;;;;30.22;17.67;98260.00;10524838;28;20047;-73
2023/07/07 14:16:15;;;;;;;3.33;1.60;;;;;;;30.30;17.72;98259.94;10496764;28;20053;-74
2023/07/07 14:21:36;;;;;;;3.40;1.88;;;;;;;30.38;17.54;98243.38;10511741;28;20048;-73
2023/07/07 14:26:57;;;;;;;3.97;1.73;;;;;;;30.24;17.92;98248.47;10510335;28;20044;-73
2023/07/07 14:32:41;;;;;;;6.10;1.92;;;;;;;30.03;17.92;98247.78;10510495;28;20059;-73
2023/07/07 14:38:06;;;;;;;3.80;1.92;;;;;;;30.02;18.15;98229.06;10511595;28;20129;-73
2023/07/07 14:43:29;;;;;;;3.28;1.50;;;;;;;29.68;18.76;98233.44;10497428;28;20040;-73
2023/07/07 14:48:52;;;;;;;5.05;1.83;;;;;;;29.56;18.97;98230.56;10510093;28;20044;-73
2023/07/07 14:54:15;;;;;;;3.15;2.20;;;;;;;29.51;19.11;98224.06;10509789;28;20050;-73
2023/07/07 14:59:36;;;;;;;3.13;1.70;;;;;;;29.44;18.97;98233.41;10495894;28;20044;-73
2023/07/07 15:05:34;;;;;;;3.37;1.57;;;;;;;29.37;19.00;98232.69;10509728;28;20055;-73
2023/07/07 15:10:57;;;;;;;4.43;1.90;;;;;;;29.10;19.19;98228.34;10509700;28;20278;-73
2023/07/07 15:16:21;;;;;;;4.38;1.90;;;;;;;28.92;19.42;98218.25;10495696;28;20089;-73
2023/07/07 15:21:42;;;;;;;4.57;2.08;;;;;;;28.82;19.76;98217.50;10509811;28;20036;-73
2023/07/07 15:27:03;;;;;;;5.10;2.22;;;;;;;28.74;19.97;98218.91;10509380;28;20044;-73
2023/07/07 15:32:24;;;;;;;3.97;2.10;;;;;;;28.68;19.75;98209.56;10523220;28;20480;-72
2023/07/07 15:37:46;;;;;;;6.33;2.03;;;;;;;28.47;20.04;98205.88;10538070;28;20048;-73
2023/07/07 15:43:07;;;;;;;5.68;2.08;;;;;;;28.40;20.19;98198.69;10481385;28;20040;-73
2023/07/07 15:48:28;;;;;;;4.05;1.80;;;;;;;28.57;20.15;98199.44;10511326;28;20048;-72
2023/07/07 15:53:52;;;;;;;6.30;2.33;;;;;;;28.57;20.45;98208.06;10530321;28;20409;-73
2023/07/07 15:59:18;;;;;;;3.05;2.05;;;;;;;28.54;20.69;98203.75;10516375;28;20054;-73
2023/07/07 16:04:39;;;;;;;4.95;2.00;;;;;;;28.49;21.02;98200.16;10516055;28;20055;-72
2023/07/07 16:10:00;;;;;;;4.60;2.22;;;;;;;28.46;21.03;98202.28;10515863;28;20085;-73
2023/07/07 16:15:21;;;;;;;4.35;1.80;;;;;;;28.45;21.22;98192.25;10515470;28;20044;-72
2023/07/07 16:20:46;;;;;;;4.05;2.17;;;;;;;28.29;21.39;98192.19;10528961;28;20051;-73
2023/07/07 16:26:12;;;;;;;3.33;1.67;;;;;;;28.25;21.75;98192.13;10528576;28;20111;-73
2023/07/07 16:31:33;;;;;;;3.63;1.85;;;;;;;28.20;21.52;98188.53;10528688;28;20046;-73
2023/07/07 16:36:56;;;;;;;3.33;1.88;;;;;;;28.16;21.63;98190.66;10514635;28;20048;-73
2023/07/07 16:42:17;;;;;;;4.05;1.88;;;;;;;28.13;21.88;98189.22;10527878;28;20044;-73
2023/07/07 16:47:38;;;;;;;3.58;1.50;;;;;;;28.11;22.08;98194.94;10528044;28;20048;-72
2023/07/07 16:52:59;;;;;;;2.58;1.60;;;;;;;28.02;22.02;98185.59;10527586;28;20097;-72
2023/07/07 16:58:21;;;;;;;5.95;2.10;;;;;;;27.99;22.23;98192.00;10527402;28;20040;-72
2023/07/07 17:03:42;;;;;;;3.67;1.98;;;;;;;27.85;22.25;98179.03;10526554;28;20394;-72
2023/07/07 17:09:17;;;;;;;3.45;1.63;;;;;;;27.76;22.66;98182.56;10513156;28;20059;-72
2023/07/07 17:14:38;;;;;;;5.15;2.20;;;;;;;27.73;22.68;98186.84;10499130;28;20055;-72
2023/07/07 17:19:59;;;;;;;6.00;2.05;;;;;;;27.63;22.61;98191.06;10526484;28;20055;-73
2023/07/07 17:25:20;;;;;;;2.85;1.65;;;;;;;27.52;22.80;98194.56;10526414;28;20485;-72
2023/07/07 17:30:42;;;;;;;6.05;2.35;;;;;;;27.34;22.88;98184.41;10526371;28;20067;-72
2023/07/07 17:36:08;;;;;;;2.47;1.73;;;;;;;27.22;22.96;98189.31;10525962;28;20437;-72
2023/07/07 17:41:30;;;;;;;5.20;2.70;;;;;;;27.10;22.82;98187.03;10498559;28;20410;-72
2023/07/07 17:46:51;;;;;;;4.60;2.07;;;;;;;27.00;23.00;98190.50;10511876;28;20047;-72
2023/07/07 17:52:13;;;;;;;6.25;2.08;;;;;;;26.92;23.38;98183.97;10540489;28;20500;-73
2023/07/07 17:57:34;;;;;;;3.88;2.00;;;;;;;26.81;23.72;98203.91;10497260;28;20040;-73
2023/07/07 18:02:55;;;;;;;4.25;1.98;;;;;;;26.68;23.64;98195.91;10524829;28;20136;-72
2023/07/07 18:08:16;;;;;;;4.22;2.17;;;;;;;26.60;23.80;98199.41;10510665;28;20052;-73
2023/07/07 18:13:37;;;;;;;3.42;1.98;;;;;;;26.50;23.79;98194.28;10509771;28;20043;-74
2023/07/07 18:18:58;;;;;;;4.00;1.80;;;;;;;26.34;23.86;98194.06;10510622;28;20044;-74
2023/07/07 18:24:39;;;;;;;3.42;1.98;;;;;;;26.24;24.05;98202.50;10516431;28;20043;-74
2023/07/07 18:30:00;;;;;;;3.65;1.52;;;;;;;26.04;24.40;98199.38;10524475;28;20044;-74
2023/07/07 18:35:20;;;;;;;4.32;2.17;;;;;;;25.90;24.64;98197.78;10496240;28;20477;-74
2023/07/07 18:40:44;;;;;;;8.02;2.13;;;;;;;25.76;24.77;98211.88;10524130;28;20040;-74
2023/07/07 18:46:16;;;;;;;4.88;1.58;;;;;;;25.61;25.52;98210.19;10510217;28;20398;-74
2023/07/07 18:51:41;;;;;;;;;;;;;;;25.44;25.58;98217.78;10511169;28;20093;-75
2023/07/07 18:57:02;;;;;;;6.20;2.15;;;;;;;25.25;25.94;98221.75;10523921;28;19924;-75
2023/07/07 19:02:23;;;;;;;4.18;2.30;;;;;;;25.11;26.36;98220.09;10523721;28;20048;-74
2023/07/07 19:07:44;;;;;;;8.00;2.13;;;;;;;25.02;26.36;98220.66;10509848;28;20043;-74
2023/07/07 19:13:08;;;;;;;4.85;1.90;;;;;;;24.92;26.79;98226.16;10509814;28;20371;-74
2023/07/07 19:18:38;;;;;;;4.38;2.45;;;;;;;24.78;26.90;98232.31;10538488;28;20443;-75
2023/07/07 19:24:13;;;;;;;5.82;2.55;;;;;;;24.60;27.05;98235.50;10529313;28;20075;-74
2023/07/07 19:29:36;;;;;;;3.75;2.10;;;;;;;24.49;27.50;98239.56;10517090;28;20044;-75
2023/07/07 19:34:56;;;;;;;4.78;1.98;;;;;;;24.34;27.69;98247.13;10517041;28;20055;-74
2023/07/07 19:40:30;;;;;;;3.67;2.00;;;;;;;24.21;28.12;98256.78;10529791;28;20122;-74
2023/07/07 19:45:55;;;;;;;6.00;2.08;;;;;;;24.10;28.21;98255.84;10549880;28;20524;-77
2023/07/07 19:51:19;;;;;;;4.30;2.38;;;;;;;23.97;28.93;98260.56;10526989;28;20538;-73
2023/07/07 19:56:39;;;;;;;4.50;2.00;;;;;;;23.84;28.79;98255.28;10502565;28;20040;-73
2023/07/07 20:02:00;;;;;;;5.93;2.10;;;;;;;23.76;29.08;98255.06;10518242;28;20127;-70
2023/07/07 20:07:22;;;;;;;4.50;1.80;;;;;;;23.66;29.08;98264.84;10517224;28;20036;-71
2023/07/07 20:12:43;;;;;;;4.25;2.05;;;;;;;23.60;29.61;98256.13;10534724;28;20071;-73
2023/07/07 20:18:05;;;;;;;3.28;1.77;;;;;;;23.49;29.82;98256.53;10520545;28;20047;-69
2023/07/07 20:23:26;;;;;;;3.72;1.98;;;;;;;23.35;30.07;98259.72;10498834;28;20494;-69
2023/07/07 20:28:49;;;;;;;4.85;2.05;;;;;;;23.28;30.09;98266.69;10543210;28;20145;-72
2023/07/07 20:34:12;;;;;;;4.80;2.40;;;;;;;23.18;30.13;98260.75;10527068;28;20073;-73
2023/07/07 20:39:33;;;;;;;5.95;1.98;;;;;;;23.11;30.44;98259.84;10514345;28;20054;-70
2023/07/07 20:44:54;;;;;;;2.78;1.70;;;;;;;23.02;30.81;98258.91;10542006;28;20393;-70
2023/07/07 20:50:20;;;;;;;3.50;1.80;;;;;;;22.93;31.01;98270.75;10542411;28;20536;-74
2023/07/07 20:55:41;;;;;;;3.67;2.20;;;;;;;22.85;31.37;98269.13;10513534;28;20064;-73
2023/07/07 21:01:01;;;;;;;3.53;1.88;;;;;;;22.77;31.08;98265.28;10509415;28;20059;-74
2023/07/07 21:06:23;;;;;;;5.63;2.28;;;;;;;22.66;31.06;98264.28;10526843;28;20071;-73
2023/07/07 21:11:44;;;;;;;3.77;2.30;;;;;;;22.61;31.45;98267.72;10526355;28;20135;-73
2023/07/07 21:17:05;;;;;;;3.15;1.92;;;;;;;22.55;31.08;98266.13;10509635;28;20041;-70
2023/07/07 21:22:25;;;;;;;3.15;1.85;;;;;;;22.52;31.38;98270.31;10500865;28;20118;-71
2023/07/07 21:27:46;;;;;;;5.07;2.15;;;;;;;22.42;31.57;98274.97;10525054;28;20083;-70
2023/07/07 21:33:08;;;;;;;3.90;1.88;;;;;;;22.31;31.63;98279.66;10509466;28;20438;-74
2023/07/07 21:38:29;;;;;;;7.00;2.20;;;;;;;22.31;31.78;98276.09;10492742;28;20101;-72
2023/07/07 21:43:50;;;;;;;4.75;2.10;;;;;;;22.23;31.65;98270.88;10481089;28;20289;-69
2023/07/07 21:49:15;;;;;;;5.05;1.98;;;;;;;22.19;32.04;98279.25;10524450;28;20075;-75
2023/07/07 21:54:35;;;;;;;3.72;2.10;;;;;;;22.04;31.96;98280.22;10526855;28;20508;-71
2023/07/07 21:59:56;;;;;;;3.35;2.10;;;;;;;21.82;32.49;98269.59;10531670;28;20040;-71
2023/07/07 22:05:17;;;;;;;4.13;1.80;;;;;;;21.64;32.79;98274.69;10537999;28;20083;-71
2023/07/07 22:10:40;;;;;;;4.38;2.10;;;;;;;21.53;32.97;98284.28;10526484;28;20459;-70
2023/07/07 22:16:08;;;;;;;2.88;1.73;;;;;;;21.34;33.51;98283.69;10474945;28;20044;-70
2023/07/07 22:21:29;;;;;;;5.22;1.90;;;;;;;21.38;33.18;98292.31;10494791;28;20119;-73
2023/07/07 22:26:49;;;;;;;2.88;1.52;;;;;;;21.53;33.22;98278.59;10544849;28;20068;-71
2023/07/07 22:32:13;;;;;;;4.55;1.77;;;;;;;21.58;33.00;98274.50;10498252;28;20071;-80
2023/07/07 22:37:34;;;;;;;3.55;1.70;;;;;;;21.59;32.68;98275.94;10540547;28;20115;-71
2023/07/07 22:42:54;;;;;;;3.35;2.00;;;;;;;21.60;32.90;98266.03;10509112;28;20517;-72
2023/07/07 22:48:16;;;;;;;3.50;1.65;;;;;;;21.62;32.35;98260.44;10540011;28;20087;-70
2023/07/07 22:53:37;;;;;;;3.63;1.75;;;;;;;21.63;32.46;98256.22;10523132;28;20063;-72
2023/07/07 22:58:58;;;;;;;3.17;1.80;;;;;;;21.59;32.29;98253.22;10520749;28;20063;-74
2023/07/07 23:04:19;;;;;;;3.15;1.70;;;;;;;21.58;32.70;98251.78;10549421;28;20127;-71
2023/07/07 23:09:46;;;;;;;4.35;1.77;;;;;;;21.56;32.08;98243.91;10517070;28;20040;-71
2023/07/07 23:15:08;;;;;;;3.00;1.88;;;;;;;21.45;32.20;98244.25;10488682;28;20051;-70
2023/07/07 23:20:29;;;;;;;3.60;2.10;;;;;;;21.28;32.52;98249.38;10494174;28;20123;-70
2023/07/07 23:25:56;;;;;;;3.40;1.95;;;;;;;21.18;32.78;98240.50;10546262;28;20375;-70
2023/07/07 23:31:18;;;;;;;4.35;1.92;;;;;;;21.06;33.15;98242.94;10522071;28;20063;-70
2023/07/07 23:36:40;;;;;;;3.60;1.80;;;;;;;20.95;32.92;98246.81;10499547;28;20040;-74
2023/07/07 23:42:04;;;;;;;3.65;1.80;;;;;;;20.84;33.40;98246.47;10523765;28;20060;-73
2023/07/07 23:47:25;;;;;;;2.95;1.55;;;;;;;20.73;33.34;98241.78;10488051;28;20068;-74
2023/07/07 23:52:46;;;;;;;5.30;2.00;;;;;;;20.70;33.80;98240.28;10529131;28;20508;-74
2023/07/07 23:58:12;;;;;;;4.95;1.70;;;;;;;20.63;33.67;98237.88;10528084;28;20115;-73
